sensor_id;sensor_type;location;lat;lon;timestamp;P1;durP1;ratioP1;P2;durP2;ratioP2
19800;SDS011;10060;48.274;12.214;2023-05-29T00:02:52;16.40;;;8.90;;
19800;SDS011;10060;48.274;12.214;2023-05-29T00:05:54;12.73;;;8.50;;
19800;SDS011;10060;48.274;12.214;2023-05-29T00:08:56;15.52;;;9.25;;
19800;SDS011;10060;48.274;12.214;2023-05-29T00:11:58;12.82;;;8.32;;
19800;SDS011;10060;48.274;12.214;2023-05-29T00:15:02;24.33;;;10.27;;
19800;SDS011;10060;48.274;12.214;2023-05-29T00:18:05;13.33;;;8.80;;
19800;SDS011;10060;48.274;12.214;2023-05-29T00:21:07;14.55;;;8.85;;
19800;SDS011;10060;48.274;12.214;2023-05-29T00:24:09;14.03;;;8.50;;
19800;SDS011;10060;48.274;12.214;2023-05-29T00:27:11;12.23;;;7.60;;
19800;SDS011;10060;48.274;12.214;2023-05-29T00:30:15;19.87;;;8.80;;
19800;SDS011;10060;48.274;12.214;2023-05-29T00:33:17;14.33;;;8.87;;
19800;SDS011;10060;48.274;12.214;2023-05-29T00:36:20;14.67;;;8.43;;
19800;SDS011;10060;48.274;12.214;2023-05-29T00:39:22;15.00;;;8.23;;
19800;SDS011;10060;48.274;12.214;2023-05-29T00:42:24;14.67;;;8.20;;
19800;SDS011;10060;48.274;12.214;2023-05-29T00:45:28;12.60;;;7.10;;
19800;SDS011;10060;48.274;12.214;2023-05-29T00:48:30;11.83;;;7.07;;
19800;SDS011;10060;48.274;12.214;2023-05-29T00:51:32;12.93;;;7.80;;
19800;SDS011;10060;48.274;12.214;2023-05-29T00:54:36;15.90;;;8.37;;
19800;SDS011;10060;48.274;12.214;2023-05-29T00:57:39;11.60;;;7.63;;
19800;SDS011;10060;48.274;12.214;2023-05-29T01:00:42;14.40;;;8.37;;
19800;SDS011;10060;48.274;12.214;2023-05-29T01:03:44;12.53;;;7.93;;
19800;SDS011;10060;48.274;12.214;2023-05-29T01:06:48;11.87;;;7.57;;
19800;SDS011;10060;48.274;12.214;2023-05-29T01:09:51;12.27;;;7.90;;
19800;SDS011;10060;48.274;12.214;2023-05-29T01:12:54;12.60;;;7.50;;
19800;SDS011;10060;48.274;12.214;2023-05-29T01:16:01;12.67;;;7.90;;
19800;SDS011;10060;48.274;12.214;2023-05-29T01:19:06;13.87;;;8.07;;
19800;SDS011;10060;48.274;12.214;2023-05-29T01:22:13;10.93;;;7.27;;
19800;SDS011;10060;48.274;12.214;2023-05-29T01:25:23;15.13;;;7.83;;
19800;SDS011;10060;48.274;12.214;2023-05-29T01:28:28;11.03;;;7.17;;
19800;SDS011;10060;48.274;12.214;2023-05-29T01:31:32;10.20;;;7.63;;
19800;SDS011;10060;48.274;12.214;2023-05-29T01:34:35;10.27;;;7.43;;
19800;SDS011;10060;48.274;12.214;2023-05-29T01:37:37;12.07;;;7.37;;
19800;SDS011;10060;48.274;12.214;2023-05-29T01:40:40;13.33;;;7.43;;
19800;SDS011;10060;48.274;12.214;2023-05-29T01:43:44;16.40;;;7.17;;
19800;SDS011;10060;48.274;12.214;2023-05-29T01:46:47;13.43;;;7.77;;
19800;SDS011;10060;48.274;12.214;2023-05-29T01:49:49;12.43;;;7.93;;
19800;SDS011;10060;48.274;12.214;2023-05-29T01:52:51;12.43;;;7.87;;
19800;SDS011;10060;48.274;12.214;2023-05-29T01:55:53;11.73;;;6.83;;
19800;SDS011;10060;48.274;12.214;2023-05-29T01:58:57;12.30;;;7.40;;
19800;SDS011;10060;48.274;12.214;2023-05-29T02:02:04;13.67;;;7.30;;
19800;SDS011;10060;48.274;12.214;2023-05-29T02:05:07;12.80;;;7.43;;
19800;SDS011;10060;48.274;12.214;2023-05-29T02:08:09;11.27;;;6.97;;
19800;SDS011;10060;48.274;12.214;2023-05-29T02:11:12;14.43;;;7.63;;
19800;SDS011;10060;48.274;12.214;2023-05-29T02:14:15;12.67;;;7.57;;
19800;SDS011;10060;48.274;12.214;2023-05-29T02:17:17;13.60;;;8.00;;
19800;SDS011;10060;48.274;12.214;2023-05-29T02:20:19;11.60;;;7.30;;
19800;SDS011;10060;48.274;12.214;2023-05-29T02:23:22;14.57;;;8.07;;
19800;SDS011;10060;48.274;12.214;2023-05-29T02:26:24;12.97;;;7.20;;
19800;SDS011;10060;48.274;12.214;2023-05-29T02:29:28;13.47;;;7.73;;
19800;SDS011;10060;48.274;12.214;2023-05-29T02:32:30;10.73;;;7.17;;
19800;SDS011;10060;48.274;12.214;2023-05-29T02:35:32;11.43;;;6.70;;
19800;SDS011;10060;48.274;12.214;2023-05-29T02:38:34;12.77;;;7.80;;
19800;SDS011;10060;48.274;12.214;2023-05-29T02:41:37;15.47;;;7.83;;
19800;SDS011;10060;48.274;12.214;2023-05-29T02:44:40;13.57;;;7.03;;
19800;SDS011;10060;48.274;12.214;2023-05-29T02:47:42;11.93;;;6.90;;
19800;SDS011;10060;48.274;12.214;2023-05-29T02:50:44;12.57;;;8.20;;
19800;SDS011;10060;48.274;12.214;2023-05-29T02:53:46;14.97;;;8.10;;
19800;SDS011;10060;48.274;12.214;2023-05-29T02:56:49;11.93;;;7.67;;
19800;SDS011;10060;48.274;12.214;2023-05-29T02:59:53;12.70;;;7.73;;
19800;SDS011;10060;48.274;12.214;2023-05-29T03:02:55;14.03;;;8.43;;
19800;SDS011;10060;48.274;12.214;2023-05-29T03:05:57;15.47;;;8.23;;
19800;SDS011;10060;48.274;12.214;2023-05-29T03:09:00;12.77;;;7.77;;
19800;SDS011;10060;48.274;12.214;2023-05-29T03:12:02;14.27;;;8.20;;
19800;SDS011;10060;48.274;12.214;2023-05-29T03:15:07;14.10;;;7.50;;
19800;SDS011;10060;48.274;12.214;2023-05-29T03:18:09;13.10;;;7.43;;
19800;SDS011;10060;48.274;12.214;2023-05-29T03:21:11;13.10;;;8.37;;
19800;SDS011;10060;48.274;12.214;2023-05-29T03:24:13;13.70;;;7.60;;
19800;SDS011;10060;48.274;12.214;2023-05-29T03:27:16;14.27;;;7.10;;
19800;SDS011;10060;48.274;12.214;2023-05-29T03:30:19;10.10;;;7.30;;
19800;SDS011;10060;48.274;12.214;2023-05-29T03:33:21;11.33;;;7.13;;
19800;SDS011;10060;48.274;12.214;2023-05-29T03:36:23;17.63;;;7.83;;
19800;SDS011;10060;48.274;12.214;2023-05-29T03:39:25;12.40;;;7.70;;
19800;SDS011;10060;48.274;12.214;2023-05-29T03:42:27;11.87;;;7.07;;
19800;SDS011;10060;48.274;12.214;2023-05-29T03:45:32;13.80;;;7.83;;
19800;SDS011;10060;48.274;12.214;2023-05-29T03:48:34;11.93;;;7.03;;
19800;SDS011;10060;48.274;12.214;2023-05-29T03:51:36;12.63;;;7.57;;
19800;SDS011;10060;48.274;12.214;2023-05-29T03:54:38;14.83;;;7.77;;
19800;SDS011;10060;48.274;12.214;2023-05-29T03:57:40;13.30;;;7.03;;
19800;SDS011;10060;48.274;12.214;2023-05-29T04:00:44;12.77;;;7.20;;
19800;SDS011;10060;48.274;12.214;2023-05-29T04:03:46;13.40;;;7.93;;
19800;SDS011;10060;48.274;12.214;2023-05-29T04:06:48;11.87;;;7.07;;
19800;SDS011;10060;48.274;12.214;2023-05-29T04:09:50;10.63;;;7.20;;
19800;SDS011;10060;48.274;12.214;2023-05-29T04:12:52;10.37;;;6.90;;
19800;SDS011;10060;48.274;12.214;2023-05-29T04:15:56;11.83;;;6.90;;
19800;SDS011;10060;48.274;12.214;2023-05-29T04:18:58;13.03;;;7.30;;
19800;SDS011;10060;48.274;12.214;2023-05-29T04:22:00;13.50;;;6.90;;
19800;SDS011;10060;48.274;12.214;2023-05-29T04:25:02;11.00;;;7.13;;
19800;SDS011;10060;48.274;12.214;2023-05-29T04:28:04;21.07;;;13.20;;
19800;SDS011;10060;48.274;12.214;2023-05-29T04:31:08;19.13;;;13.73;;
19800;SDS011;10060;48.274;12.214;2023-05-29T04:34:14;14.43;;;9.60;;
19800;SDS011;10060;48.274;12.214;2023-05-29T04:37:17;11.17;;;7.20;;
19800;SDS011;10060;48.274;12.214;2023-05-29T04:40:21;12.23;;;6.83;;
19800;SDS011;10060;48.274;12.214;2023-05-29T04:43:23;10.57;;;6.43;;
19800;SDS011;10060;48.274;12.214;2023-05-29T04:46:28;9.60;;;6.20;;
19800;SDS011;10060;48.274;12.214;2023-05-29T04:49:30;9.63;;;6.43;;
19800;SDS011;10060;48.274;12.214;2023-05-29T04:52:33;9.73;;;6.23;;
19800;SDS011;10060;48.274;12.214;2023-05-29T04:55:35;9.70;;;6.47;;
19800;SDS011;10060;48.274;12.214;2023-05-29T04:58:37;12.80;;;7.20;;
19800;SDS011;10060;48.274;12.214;2023-05-29T05:01:41;9.30;;;6.00;;
19800;SDS011;10060;48.274;12.214;2023-05-29T05:04:44;12.33;;;6.63;;
19800;SDS011;10060;48.274;12.214;2023-05-29T05:07:47;11.30;;;6.87;;
19800;SDS011;10060;48.274;12.214;2023-05-29T05:10:49;10.63;;;7.20;;
19800;SDS011;10060;48.274;12.214;2023-05-29T05:13:51;10.47;;;7.87;;
19800;SDS011;10060;48.274;12.214;2023-05-29T05:16:54;12.87;;;7.73;;
19800;SDS011;10060;48.274;12.214;2023-05-29T05:19:56;11.67;;;7.53;;
19800;SDS011;10060;48.274;12.214;2023-05-29T05:22:58;8.60;;;5.73;;
19800;SDS011;10060;48.274;12.214;2023-05-29T05:26:01;11.40;;;7.53;;
19800;SDS011;10060;48.274;12.214;2023-05-29T05:29:03;9.80;;;7.00;;
19800;SDS011;10060;48.274;12.214;2023-05-29T05:32:06;15.43;;;7.83;;
19800;SDS011;10060;48.274;12.214;2023-05-29T05:35:08;13.27;;;7.50;;
19800;SDS011;10060;48.274;12.214;2023-05-29T05:38:11;11.20;;;7.23;;
19800;SDS011;10060;48.274;12.214;2023-05-29T05:41:13;15.27;;;7.47;;
19800;SDS011;10060;48.274;12.214;2023-05-29T05:44:15;11.60;;;7.03;;
19800;SDS011;10060;48.274;12.214;2023-05-29T05:47:19;12.38;;;7.38;;
19800;SDS011;10060;48.274;12.214;2023-05-29T05:50:21;10.77;;;7.20;;
19800;SDS011;10060;48.274;12.214;2023-05-29T05:53:24;11.57;;;6.63;;
19800;SDS011;10060;48.274;12.214;2023-05-29T05:56:26;11.63;;;6.78;;
19800;SDS011;10060;48.274;12.214;2023-05-29T05:59:28;12.07;;;6.25;;
19800;SDS011;10060;48.274;12.214;2023-05-29T06:02:31;10.93;;;6.38;;
19800;SDS011;10060;48.274;12.214;2023-05-29T06:05:34;10.60;;;6.40;;
19800;SDS011;10060;48.274;12.214;2023-05-29T06:08:38;9.90;;;6.32;;
19800;SDS011;10060;48.274;12.214;2023-05-29T06:11:41;10.15;;;6.25;;
19800;SDS011;10060;48.274;12.214;2023-05-29T06:14:43;11.35;;;6.60;;
19800;SDS011;10060;48.274;12.214;2023-05-29T06:17:47;9.40;;;6.22;;
19800;SDS011;10060;48.274;12.214;2023-05-29T06:20:51;11.00;;;6.65;;
19800;SDS011;10060;48.274;12.214;2023-05-29T06:23:53;11.27;;;6.05;;
19800;SDS011;10060;48.274;12.214;2023-05-29T06:26:55;10.80;;;6.57;;
19800;SDS011;10060;48.274;12.214;2023-05-29T06:29:57;11.48;;;5.60;;
19800;SDS011;10060;48.274;12.214;2023-05-29T06:33:01;13.10;;;6.40;;
19800;SDS011;10060;48.274;12.214;2023-05-29T06:36:03;9.88;;;6.05;;
19800;SDS011;10060;48.274;12.214;2023-05-29T06:39:05;11.68;;;5.43;;
19800;SDS011;10060;48.274;12.214;2023-05-29T06:42:07;7.75;;;5.30;;
19800;SDS011;10060;48.274;12.214;2023-05-29T06:45:10;13.10;;;5.70;;
19800;SDS011;10060;48.274;12.214;2023-05-29T06:48:14;8.82;;;5.68;;
19800;SDS011;10060;48.274;12.214;2023-05-29T06:51:17;10.43;;;5.57;;
19800;SDS011;10060;48.274;12.214;2023-05-29T06:54:19;9.77;;;5.65;;
19800;SDS011;10060;48.274;12.214;2023-05-29T06:57:21;10.95;;;5.55;;
19800;SDS011;10060;48.274;12.214;2023-05-29T07:00:23;11.43;;;5.85;;
19800;SDS011;10060;48.274;12.214;2023-05-29T07:03:27;8.15;;;4.85;;
19800;SDS011;10060;48.274;12.214;2023-05-29T07:06:29;8.68;;;5.53;;
19800;SDS011;10060;48.274;12.214;2023-05-29T07:09:31;13.38;;;5.28;;
19800;SDS011;10060;48.274;12.214;2023-05-29T07:12:34;11.15;;;5.45;;
19800;SDS011;10060;48.274;12.214;2023-05-29T07:15:37;9.80;;;5.35;;
19800;SDS011;10060;48.274;12.214;2023-05-29T07:18:40;8.38;;;4.88;;
19800;SDS011;10060;48.274;12.214;2023-05-29T07:21:42;9.45;;;5.30;;
19800;SDS011;10060;48.274;12.214;2023-05-29T07:24:45;10.10;;;5.68;;
19800;SDS011;10060;48.274;12.214;2023-05-29T07:27:47;11.23;;;5.68;;
19800;SDS011;10060;48.274;12.214;2023-05-29T07:30:49;12.55;;;5.40;;
19800;SDS011;10060;48.274;12.214;2023-05-29T07:33:53;11.45;;;5.28;;
19800;SDS011;10060;48.274;12.214;2023-05-29T07:36:56;9.70;;;5.63;;
19800;SDS011;10060;48.274;12.214;2023-05-29T07:39:59;9.45;;;5.55;;
19800;SDS011;10060;48.274;12.214;2023-05-29T07:43:01;9.23;;;5.30;;
19800;SDS011;10060;48.274;12.214;2023-05-29T07:46:03;9.38;;;5.20;;
19800;SDS011;10060;48.274;12.214;2023-05-29T07:49:06;10.85;;;5.78;;
19800;SDS011;10060;48.274;12.214;2023-05-29T07:52:08;10.63;;;5.35;;
19800;SDS011;10060;48.274;12.214;2023-05-29T07:55:10;12.13;;;4.95;;
19800;SDS011;10060;48.274;12.214;2023-05-29T07:58:12;10.32;;;5.00;;
19800;SDS011;10060;48.274;12.214;2023-05-29T08:01:16;10.02;;;5.40;;
19800;SDS011;10060;48.274;12.214;2023-05-29T08:04:20;8.00;;;5.10;;
19800;SDS011;10060;48.274;12.214;2023-05-29T08:07:22;7.07;;;4.80;;
19800;SDS011;10060;48.274;12.214;2023-05-29T08:10:24;9.10;;;5.15;;
19800;SDS011;10060;48.274;12.214;2023-05-29T08:13:26;9.93;;;5.22;;
19800;SDS011;10060;48.274;12.214;2023-05-29T08:16:28;13.35;;;4.47;;
19800;SDS011;10060;48.274;12.214;2023-05-29T08:19:32;8.35;;;4.80;;
19800;SDS011;10060;48.274;12.214;2023-05-29T08:22:34;6.78;;;5.10;;
19800;SDS011;10060;48.274;12.214;2023-05-29T08:25:36;8.27;;;5.20;;
19800;SDS011;10060;48.274;12.214;2023-05-29T08:28:38;6.88;;;4.82;;
19800;SDS011;10060;48.274;12.214;2023-05-29T08:31:40;8.70;;;5.47;;
19800;SDS011;10060;48.274;12.214;2023-05-29T08:34:44;8.32;;;4.72;;
19800;SDS011;10060;48.274;12.214;2023-05-29T08:37:46;6.65;;;4.22;;
19800;SDS011;10060;48.274;12.214;2023-05-29T08:40:48;13.02;;;5.15;;
19800;SDS011;10060;48.274;12.214;2023-05-29T08:43:50;8.25;;;4.68;;
19800;SDS011;10060;48.274;12.214;2023-05-29T08:46:55;8.65;;;4.72;;
19800;SDS011;10060;48.274;12.214;2023-05-29T08:49:58;9.88;;;5.18;;
19800;SDS011;10060;48.274;12.214;2023-05-29T08:53:02;8.75;;;5.30;;
19800;SDS011;10060;48.274;12.214;2023-05-29T08:56:05;9.27;;;4.78;;
19800;SDS011;10060;48.274;12.214;2023-05-29T08:59:07;7.97;;;5.13;;
19800;SDS011;10060;48.274;12.214;2023-05-29T09:02:10;9.10;;;4.93;;
19800;SDS011;10060;48.274;12.214;2023-05-29T09:05:14;10.63;;;5.22;;
19800;SDS011;10060;48.274;12.214;2023-05-29T09:08:17;8.70;;;4.82;;
19800;SDS011;10060;48.274;12.214;2023-05-29T09:11:19;7.55;;;4.90;;
19800;SDS011;10060;48.274;12.214;2023-05-29T09:14:34;9.05;;;5.07;;
19800;SDS011;10060;48.274;12.214;2023-05-29T09:17:36;8.95;;;4.53;;
19800;SDS011;10060;48.274;12.214;2023-05-29T09:20:40;9.52;;;5.15;;
19800;SDS011;10060;48.274;12.214;2023-05-29T09:23:42;6.72;;;4.60;;
19800;SDS011;10060;48.274;12.214;2023-05-29T09:26:48;11.27;;;5.18;;
19800;SDS011;10060;48.274;12.214;2023-05-29T09:29:50;11.10;;;5.40;;
19800;SDS011;10060;48.274;12.214;2023-05-29T09:32:52;8.80;;;4.53;;
19800;SDS011;10060;48.274;12.214;2023-05-29T09:35:56;7.05;;;4.50;;
19800;SDS011;10060;48.274;12.214;2023-05-29T09:39:01;8.05;;;4.85;;
19800;SDS011;10060;48.274;12.214;2023-05-29T09:42:04;5.80;;;4.35;;
19800;SDS011;10060;48.274;12.214;2023-05-29T09:45:07;8.98;;;5.05;;
19800;SDS011;10060;48.274;12.214;2023-05-29T09:48:11;10.20;;;4.97;;
19800;SDS011;10060;48.274;12.214;2023-05-29T09:51:24;5.28;;;4.00;;
19800;SDS011;10060;48.274;12.214;2023-05-29T09:54:27;7.18;;;4.47;;
19800;SDS011;10060;48.274;12.214;2023-05-29T09:57:29;9.57;;;4.72;;
19800;SDS011;10060;48.274;12.214;2023-05-29T10:00:32;6.35;;;4.20;;
19800;SDS011;10060;48.274;12.214;2023-05-29T10:03:34;7.53;;;4.43;;
19800;SDS011;10060;48.274;12.214;2023-05-29T10:06:37;6.57;;;4.40;;
19800;SDS011;10060;48.274;12.214;2023-05-29T10:09:41;10.20;;;4.80;;
19800;SDS011;10060;48.274;12.214;2023-05-29T10:12:45;11.35;;;4.93;;
19800;SDS011;10060;48.274;12.214;2023-05-29T10:15:49;8.30;;;4.63;;
19800;SDS011;10060;48.274;12.214;2023-05-29T10:18:55;6.50;;;3.88;;
19800;SDS011;10060;48.274;12.214;2023-05-29T10:21:58;5.82;;;3.92;;
19800;SDS011;10060;48.274;12.214;2023-05-29T10:25:03;7.75;;;4.78;;
19800;SDS011;10060;48.274;12.214;2023-05-29T10:28:06;8.60;;;4.07;;
19800;SDS011;10060;48.274;12.214;2023-05-29T10:31:08;7.53;;;4.55;;
19800;SDS011;10060;48.274;12.214;2023-05-29T10:34:14;6.43;;;4.40;;
19800;SDS011;10060;48.274;12.214;2023-05-29T10:37:24;8.38;;;4.22;;
19800;SDS011;10060;48.274;12.214;2023-05-29T10:40:26;8.32;;;4.43;;
19800;SDS011;10060;48.274;12.214;2023-05-29T10:43:32;5.32;;;3.75;;
19800;SDS011;10060;48.274;12.214;2023-05-29T10:49:59;6.85;;;3.90;;
19800;SDS011;10060;48.274;12.214;2023-05-29T10:53:02;6.63;;;4.45;;
19800;SDS011;10060;48.274;12.214;2023-05-29T10:56:05;7.85;;;4.05;;
19800;SDS011;10060;48.274;12.214;2023-05-29T10:59:10;7.97;;;4.38;;
19800;SDS011;10060;48.274;12.214;2023-05-29T11:02:17;7.90;;;4.70;;
19800;SDS011;10060;48.274;12.214;2023-05-29T11:05:21;8.95;;;4.82;;
19800;SDS011;10060;48.274;12.214;2023-05-29T11:08:29;9.40;;;4.63;;
19800;SDS011;10060;48.274;12.214;2023-05-29T11:11:34;6.47;;;4.28;;
19800;SDS011;10060;48.274;12.214;2023-05-29T11:14:45;6.60;;;4.35;;
19800;SDS011;10060;48.274;12.214;2023-05-29T11:17:47;6.72;;;4.00;;
19800;SDS011;10060;48.274;12.214;2023-05-29T11:20:51;6.28;;;4.00;;
19800;SDS011;10060;48.274;12.214;2023-05-29T11:23:56;7.60;;;4.10;;
19800;SDS011;10060;48.274;12.214;2023-05-29T11:26:59;6.80;;;4.20;;
19800;SDS011;10060;48.274;12.214;2023-05-29T11:30:06;7.03;;;4.68;;
19800;SDS011;10060;48.274;12.214;2023-05-29T11:33:09;6.43;;;3.95;;
19800;SDS011;10060;48.274;12.214;2023-05-29T11:36:12;6.63;;;4.10;;
19800;SDS011;10060;48.274;12.214;2023-05-29T11:39:17;6.60;;;4.00;;
19800;SDS011;10060;48.274;12.214;2023-05-29T11:42:19;6.78;;;4.40;;
19800;SDS011;10060;48.274;12.214;2023-05-29T11:45:21;6.93;;;3.95;;
19800;SDS011;10060;48.274;12.214;2023-05-29T11:48:24;9.13;;;4.90;;
19800;SDS011;10060;48.274;12.214;2023-05-29T11:51:26;6.38;;;4.20;;
19800;SDS011;10060;48.274;12.214;2023-05-29T11:54:30;36.83;;;6.00;;
19800;SDS011;10060;48.274;12.214;2023-05-29T11:57:32;7.07;;;4.10;;
19800;SDS011;10060;48.274;12.214;2023-05-29T12:00:35;8.18;;;4.50;;
19800;SDS011;10060;48.274;12.214;2023-05-29T12:03:37;7.53;;;4.10;;
19800;SDS011;10060;48.274;12.214;2023-05-29T12:06:40;6.20;;;3.90;;
19800;SDS011;10060;48.274;12.214;2023-05-29T12:09:43;6.32;;;4.13;;
19800;SDS011;10060;48.274;12.214;2023-05-29T12:12:47;7.38;;;3.63;;
19800;SDS011;10060;48.274;12.214;2023-05-29T12:15:51;6.90;;;3.80;;
19800;SDS011;10060;48.274;12.214;2023-05-29T12:18:54;5.32;;;3.72;;
19800;SDS011;10060;48.274;12.214;2023-05-29T12:21:56;7.20;;;3.72;;
19800;SDS011;10060;48.274;12.214;2023-05-29T12:25:04;7.05;;;4.18;;
19800;SDS011;10060;48.274;12.214;2023-05-29T12:28:07;7.47;;;4.10;;
19800;SDS011;10060;48.274;12.214;2023-05-29T12:31:09;7.97;;;4.43;;
19800;SDS011;10060;48.274;12.214;2023-05-29T12:34:11;5.97;;;3.80;;
19800;SDS011;10060;48.274;12.214;2023-05-29T12:37:20;7.25;;;3.80;;
19800;SDS011;10060;48.274;12.214;2023-05-29T12:40:24;5.68;;;3.60;;
19800;SDS011;10060;48.274;12.214;2023-05-29T12:43:26;8.13;;;3.80;;
19800;SDS011;10060;48.274;12.214;2023-05-29T12:46:35;8.35;;;4.22;;
19800;SDS011;10060;48.274;12.214;2023-05-29T12:49:37;6.65;;;3.50;;
19800;SDS011;10060;48.274;12.214;2023-05-29T12:52:40;5.53;;;3.85;;
19800;SDS011;10060;48.274;12.214;2023-05-29T12:55:44;6.80;;;3.80;;
19800;SDS011;10060;48.274;12.214;2023-05-29T12:58:46;7.90;;;3.90;;
19800;SDS011;10060;48.274;12.214;2023-05-29T13:01:48;8.77;;;4.10;;
19800;SDS011;10060;48.274;12.214;2023-05-29T13:04:52;9.07;;;3.85;;
19800;SDS011;10060;48.274;12.214;2023-05-29T13:07:54;5.65;;;3.80;;
19800;SDS011;10060;48.274;12.214;2023-05-29T13:10:57;6.65;;;3.60;;
19800;SDS011;10060;48.274;12.214;2023-05-29T13:13:59;6.25;;;3.72;;
19800;SDS011;10060;48.274;12.214;2023-05-29T13:17:02;5.97;;;3.55;;
19800;SDS011;10060;48.274;12.214;2023-05-29T13:20:04;5.97;;;3.47;;
19800;SDS011;10060;48.274;12.214;2023-05-29T13:23:08;9.13;;;3.22;;
19800;SDS011;10060;48.274;12.214;2023-05-29T13:26:11;5.25;;;3.90;;
19800;SDS011;10060;48.274;12.214;2023-05-29T13:29:13;4.75;;;3.42;;
19800;SDS011;10060;48.274;12.214;2023-05-29T13:32:15;5.28;;;3.47;;
19800;SDS011;10060;48.274;12.214;2023-05-29T13:35:18;7.88;;;3.67;;
19800;SDS011;10060;48.274;12.214;2023-05-29T13:38:20;5.95;;;3.88;;
19800;SDS011;10060;48.274;12.214;2023-05-29T13:41:23;4.15;;;3.42;;
19800;SDS011;10060;48.274;12.214;2023-05-29T13:44:25;7.15;;;3.60;;
19800;SDS011;10060;48.274;12.214;2023-05-29T13:47:28;5.65;;;4.30;;
19800;SDS011;10060;48.274;12.214;2023-05-29T13:50:32;10.00;;;4.97;;
19800;SDS011;10060;48.274;12.214;2023-05-29T13:53:34;5.43;;;3.35;;
19800;SDS011;10060;48.274;12.214;2023-05-29T13:56:37;5.90;;;3.92;;
19800;SDS011;10060;48.274;12.214;2023-05-29T13:59:39;6.45;;;3.88;;
19800;SDS011;10060;48.274;12.214;2023-05-29T14:02:41;6.00;;;3.97;;
19800;SDS011;10060;48.274;12.214;2023-05-29T14:05:43;7.45;;;3.75;;
19800;SDS011;10060;48.274;12.214;2023-05-29T14:08:45;5.90;;;3.60;;
19800;SDS011;10060;48.274;12.214;2023-05-29T14:11:49;7.95;;;3.17;;
19800;SDS011;10060;48.274;12.214;2023-05-29T14:14:51;5.63;;;3.80;;
19800;SDS011;10060;48.274;12.214;2023-05-29T14:17:53;8.30;;;4.30;;
19800;SDS011;10060;48.274;12.214;2023-05-29T14:20:55;7.30;;;4.22;;
19800;SDS011;10060;48.274;12.214;2023-05-29T14:23:57;4.78;;;3.60;;
19800;SDS011;10060;48.274;12.214;2023-05-29T14:27:01;5.13;;;3.10;;
19800;SDS011;10060;48.274;12.214;2023-05-29T14:30:03;6.35;;;3.45;;
19800;SDS011;10060;48.274;12.214;2023-05-29T14:33:06;4.90;;;3.63;;
19800;SDS011;10060;48.274;12.214;2023-05-29T14:36:08;6.03;;;3.53;;
19800;SDS011;10060;48.274;12.214;2023-05-29T14:39:10;5.00;;;3.78;;
19800;SDS011;10060;48.274;12.214;2023-05-29T14:42:14;5.40;;;3.58;;
19800;SDS011;10060;48.274;12.214;2023-05-29T14:45:17;6.30;;;3.38;;
19800;SDS011;10060;48.274;12.214;2023-05-29T14:48:19;6.47;;;3.05;;
19800;SDS011;10060;48.274;12.214;2023-05-29T14:51:21;4.95;;;3.30;;
19800;SDS011;10060;48.274;12.214;2023-05-29T14:54:24;9.52;;;4.05;;
19800;SDS011;10060;48.274;12.214;2023-05-29T14:57:29;5.25;;;3.53;;
19800;SDS011;10060;48.274;12.214;2023-05-29T15:00:33;6.07;;;3.22;;
19800;SDS011;10060;48.274;12.214;2023-05-29T15:03:35;39.65;;;4.32;;
19800;SDS011;10060;48.274;12.214;2023-05-29T15:06:37;6.05;;;3.50;;
19800;SDS011;10060;48.274;12.214;2023-05-29T15:09:39;4.53;;;2.95;;
19800;SDS011;10060;48.274;12.214;2023-05-29T15:12:43;4.97;;;3.20;;
19800;SDS011;10060;48.274;12.214;2023-05-29T15:15:45;4.22;;;2.80;;
19800;SDS011;10060;48.274;12.214;2023-05-29T15:18:47;4.70;;;2.78;;
19800;SDS011;10060;48.274;12.214;2023-05-29T15:21:49;7.60;;;3.00;;
19800;SDS011;10060;48.274;12.214;2023-05-29T15:24:51;4.68;;;2.92;;
19800;SDS011;10060;48.274;12.214;2023-05-29T15:27:55;3.70;;;2.80;;
19800;SDS011;10060;48.274;12.214;2023-05-29T15:30:59;4.75;;;2.58;;
19800;SDS011;10060;48.274;12.214;2023-05-29T15:34:01;5.35;;;3.30;;
19800;SDS011;10060;48.274;12.214;2023-05-29T15:37:03;5.60;;;3.10;;
19800;SDS011;10060;48.274;12.214;2023-05-29T15:40:06;6.63;;;3.00;;
19800;SDS011;10060;48.274;12.214;2023-05-29T15:43:10;4.53;;;3.03;;
19800;SDS011;10060;48.274;12.214;2023-05-29T15:46:12;7.25;;;3.40;;
19800;SDS011;10060;48.274;12.214;2023-05-29T15:49:14;7.28;;;2.90;;
19800;SDS011;10060;48.274;12.214;2023-05-29T15:52:16;4.15;;;3.05;;
19800;SDS011;10060;48.274;12.214;2023-05-29T15:55:19;5.85;;;3.08;;
19800;SDS011;10060;48.274;12.214;2023-05-29T15:58:22;5.47;;;2.88;;
19800;SDS011;10060;48.274;12.214;2023-05-29T16:01:24;3.90;;;3.03;;
19800;SDS011;10060;48.274;12.214;2023-05-29T16:04:27;5.07;;;3.53;;
19800;SDS011;10060;48.274;12.214;2023-05-29T16:07:29;3.45;;;2.58;;
19800;SDS011;10060;48.274;12.214;2023-05-29T16:10:31;6.28;;;3.70;;
19800;SDS011;10060;48.274;12.214;2023-05-29T16:13:35;7.57;;;3.35;;
19800;SDS011;10060;48.274;12.214;2023-05-29T16:16:37;4.20;;;2.97;;
19800;SDS011;10060;48.274;12.214;2023-05-29T16:19:39;4.40;;;3.03;;
19800;SDS011;10060;48.274;12.214;2023-05-29T16:22:41;6.53;;;2.95;;
19800;SDS011;10060;48.274;12.214;2023-05-29T16:25:43;5.53;;;2.85;;
19800;SDS011;10060;48.274;12.214;2023-05-29T16:28:47;8.27;;;3.63;;
19800;SDS011;10060;48.274;12.214;2023-05-29T16:31:49;4.38;;;3.28;;
19800;SDS011;10060;48.274;12.214;2023-05-29T16:34:51;7.80;;;3.58;;
19800;SDS011;10060;48.274;12.214;2023-05-29T16:37:54;4.20;;;3.38;;
19800;SDS011;10060;48.274;12.214;2023-05-29T16:40:57;4.72;;;3.00;;
19800;SDS011;10060;48.274;12.214;2023-05-29T16:44:00;6.78;;;3.40;;
19800;SDS011;10060;48.274;12.214;2023-05-29T16:47:03;6.53;;;3.15;;
19800;SDS011;10060;48.274;12.214;2023-05-29T16:50:05;7.28;;;3.55;;
19800;SDS011;10060;48.274;12.214;2023-05-29T16:53:07;5.07;;;3.33;;
19800;SDS011;10060;48.274;12.214;2023-05-29T16:56:09;6.65;;;3.00;;
19800;SDS011;10060;48.274;12.214;2023-05-29T16:59:13;5.40;;;3.15;;
19800;SDS011;10060;48.274;12.214;2023-05-29T17:02:16;5.45;;;3.20;;
19800;SDS011;10060;48.274;12.214;2023-05-29T17:05:19;5.43;;;3.42;;
19800;SDS011;10060;48.274;12.214;2023-05-29T17:08:21;6.35;;;3.92;;
19800;SDS011;10060;48.274;12.214;2023-05-29T17:11:23;4.85;;;3.33;;
19800;SDS011;10060;48.274;12.214;2023-05-29T17:14:28;5.65;;;3.33;;
19800;SDS011;10060;48.274;12.214;2023-05-29T17:17:30;8.68;;;3.85;;
19800;SDS011;10060;48.274;12.214;2023-05-29T17:20:32;5.20;;;3.40;;
19800;SDS011;10060;48.274;12.214;2023-05-29T17:23:35;6.00;;;3.00;;
19800;SDS011;10060;48.274;12.214;2023-05-29T17:26:37;5.65;;;3.42;;
19800;SDS011;10060;48.274;12.214;2023-05-29T17:29:41;4.47;;;3.33;;
19800;SDS011;10060;48.274;12.214;2023-05-29T17:32:43;6.25;;;3.17;;
19800;SDS011;10060;48.274;12.214;2023-05-29T17:35:45;5.95;;;3.38;;
19800;SDS011;10060;48.274;12.214;2023-05-29T17:38:47;5.95;;;3.00;;
19800;SDS011;10060;48.274;12.214;2023-05-29T17:41:51;5.43;;;3.58;;
19800;SDS011;10060;48.274;12.214;2023-05-29T17:44:55;5.20;;;3.20;;
19800;SDS011;10060;48.274;12.214;2023-05-29T17:47:57;4.57;;;2.90;;
19800;SDS011;10060;48.274;12.214;2023-05-29T17:50:59;6.75;;;3.30;;
19800;SDS011;10060;48.274;12.214;2023-05-29T17:54:01;4.95;;;3.20;;
19800;SDS011;10060;48.274;12.214;2023-05-29T17:57:10;4.70;;;3.22;;
19800;SDS011;10060;48.274;12.214;2023-05-29T18:00:15;7.13;;;4.28;;
19800;SDS011;10060;48.274;12.214;2023-05-29T18:03:18;7.50;;;3.35;;